sensor_id;sensor_type;location;lat;lon;timestamp;P1;durP1;ratioP1;P2;durP2;ratioP2
51814;SDS011;37874;53.158;6.766;2023-02-11T00:01:08;8.88;;;3.20;;
51814;SDS011;37874;53.158;6.766;2023-02-11T00:03:35;9.25;;;3.03;;
51814;SDS011;37874;53.158;6.766;2023-02-11T00:06:03;5.30;;;2.60;;
51814;SDS011;37874;53.158;6.766;2023-02-11T00:08:33;8.85;;;3.25;;
51814;SDS011;37874;53.158;6.766;2023-02-11T00:10:59;8.38;;;2.63;;
51814;SDS011;37874;53.158;6.766;2023-02-11T00:13:25;6.97;;;2.75;;
51814;SDS011;37874;53.158;6.766;2023-02-11T00:15:51;7.43;;;2.65;;
51814;SDS011;37874;53.158;6.766;2023-02-11T00:18:18;8.02;;;2.60;;
51814;SDS011;37874;53.158;6.766;2023-02-11T00:20:44;11.50;;;3.10;;
51814;SDS011;37874;53.158;6.766;2023-02-11T00:23:09;7.10;;;2.47;;
51814;SDS011;37874;53.158;6.766;2023-02-11T00:25:39;8.07;;;2.90;;
51814;SDS011;37874;53.158;6.766;2023-02-11T00:28:06;8.93;;;3.08;;
51814;SDS011;37874;53.158;6.766;2023-02-11T00:30:32;7.60;;;2.85;;
51814;SDS011;37874;53.158;6.766;2023-02-11T00:32:58;9.85;;;3.00;;
51814;SDS011;37874;53.158;6.766;2023-02-11T00:35:24;7.15;;;2.72;;
51814;SDS011;37874;53.158;6.766;2023-02-11T00:37:51;6.53;;;2.35;;
51814;SDS011;37874;53.158;6.766;2023-02-11T00:40:18;6.25;;;2.53;;
51814;SDS011;37874;53.158;6.766;2023-02-11T00:42:43;11.48;;;2.88;;
51814;SDS011;37874;53.158;6.766;2023-02-11T00:45:09;7.53;;;3.00;;
51814;SDS011;37874;53.158;6.766;2023-02-11T00:47:35;7.05;;;2.85;;
51814;SDS011;37874;53.158;6.766;2023-02-11T00:50:01;7.30;;;2.60;;
51814;SDS011;37874;53.158;6.766;2023-02-11T00:52:29;9.98;;;2.83;;
51814;SDS011;37874;53.158;6.766;2023-02-11T00:54:58;7.20;;;2.92;;
51814;SDS011;37874;53.158;6.766;2023-02-11T00:57:23;8.27;;;2.90;;
51814;SDS011;37874;53.158;6.766;2023-02-11T00:59:49;8.45;;;3.15;;
51814;SDS011;37874;53.158;6.766;2023-02-11T01:02:14;7.93;;;2.78;;
51814;SDS011;37874;53.158;6.766;2023-02-11T01:04:40;8.60;;;3.00;;
51814;SDS011;37874;53.158;6.766;2023-02-11T01:07:06;6.82;;;2.60;;
51814;SDS011;37874;53.158;6.766;2023-02-11T01:09:31;6.57;;;2.58;;
51814;SDS011;37874;53.158;6.766;2023-02-11T01:11:57;9.05;;;2.97;;
51814;SDS011;37874;53.158;6.766;2023-02-11T01:14:23;5.43;;;2.42;;
51814;SDS011;37874;53.158;6.766;2023-02-11T01:16:48;7.80;;;3.05;;
51814;SDS011;37874;53.158;6.766;2023-02-11T01:19:14;8.10;;;2.85;;
51814;SDS011;37874;53.158;6.766;2023-02-11T01:21:39;6.78;;;2.88;;
51814;SDS011;37874;53.158;6.766;2023-02-11T01:24:05;7.40;;;2.80;;
51814;SDS011;37874;53.158;6.766;2023-02-11T01:26:31;5.32;;;2.45;;
51814;SDS011;37874;53.158;6.766;2023-02-11T01:28:57;7.45;;;2.50;;
51814;SDS011;37874;53.158;6.766;2023-02-11T01:31:24;7.13;;;3.17;;
51814;SDS011;37874;53.158;6.766;2023-02-11T01:33:50;7.82;;;2.60;;
51814;SDS011;37874;53.158;6.766;2023-02-11T01:36:16;7.22;;;2.67;;
51814;SDS011;37874;53.158;6.766;2023-02-11T01:38:41;5.97;;;2.78;;
51814;SDS011;37874;53.158;6.766;2023-02-11T01:41:09;6.00;;;2.80;;
51814;SDS011;37874;53.158;6.766;2023-02-11T01:43:38;7.90;;;3.05;;
51814;SDS011;37874;53.158;6.766;2023-02-11T01:49:11;7.13;;;2.70;;
51814;SDS011;37874;53.158;6.766;2023-02-11T01:51:46;8.73;;;3.50;;
51814;SDS011;37874;53.158;6.766;2023-02-11T01:54:17;9.13;;;3.03;;
51814;SDS011;37874;53.158;6.766;2023-02-11T01:57:04;6.72;;;2.67;;
51814;SDS011;37874;53.158;6.766;2023-02-11T02:02:26;7.18;;;3.30;;
51814;SDS011;37874;53.158;6.766;2023-02-11T02:07:58;8.90;;;3.38;;
51814;SDS011;37874;53.158;6.766;2023-02-11T02:10:44;9.73;;;3.70;;
51814;SDS011;37874;53.158;6.766;2023-02-11T02:13:12;7.72;;;3.30;;
51814;SDS011;37874;53.158;6.766;2023-02-11T02:15:39;8.82;;;3.38;;
51814;SDS011;37874;53.158;6.766;2023-02-11T02:24:02;8.27;;;3.28;;
51814;SDS011;37874;53.158;6.766;2023-02-11T02:29:36;9.65;;;2.85;;
51814;SDS011;37874;53.158;6.766;2023-02-11T02:32:30;8.10;;;3.47;;
51814;SDS011;37874;53.158;6.766;2023-02-11T02:38:13;8.35;;;2.97;;
51814;SDS011;37874;53.158;6.766;2023-02-11T02:40:53;7.25;;;2.88;;
51814;SDS011;37874;53.158;6.766;2023-02-11T02:43:21;7.75;;;3.35;;
51814;SDS011;37874;53.158;6.766;2023-02-11T02:45:49;5.85;;;2.85;;
51814;SDS011;37874;53.158;6.766;2023-02-11T02:48:25;6.40;;;2.90;;
51814;SDS011;37874;53.158;6.766;2023-02-11T02:51:10;9.50;;;3.15;;
51814;SDS011;37874;53.158;6.766;2023-02-11T02:56:55;6.72;;;3.40;;
51814;SDS011;37874;53.158;6.766;2023-02-11T03:05:48;8.40;;;3.13;;
51814;SDS011;37874;53.158;6.766;2023-02-11T03:11:25;7.53;;;3.50;;
51814;SDS011;37874;53.158;6.766;2023-02-11T03:13:53;8.80;;;3.47;;
51814;SDS011;37874;53.158;6.766;2023-02-11T03:16:24;7.38;;;3.80;;
51814;SDS011;37874;53.158;6.766;2023-02-11T03:19:12;8.35;;;3.17;;
51814;SDS011;37874;53.158;6.766;2023-02-11T03:21:39;8.32;;;3.42;;
51814;SDS011;37874;53.158;6.766;2023-02-11T03:24:09;7.72;;;3.67;;
51814;SDS011;37874;53.158;6.766;2023-02-11T03:26:58;8.30;;;4.30;;
51814;SDS011;37874;53.158;6.766;2023-02-11T03:32:02;10.75;;;3.90;;
51814;SDS011;37874;53.158;6.766;2023-02-11T03:37:17;7.32;;;3.58;;
51814;SDS011;37874;53.158;6.766;2023-02-11T03:39:51;7.68;;;3.38;;
51814;SDS011;37874;53.158;6.766;2023-02-11T03:42:27;8.93;;;3.50;;
51814;SDS011;37874;53.158;6.766;2023-02-11T03:45:05;7.10;;;3.55;;
51814;SDS011;37874;53.158;6.766;2023-02-11T03:47:34;9.73;;;3.80;;
51814;SDS011;37874;53.158;6.766;2023-02-11T03:50:04;6.68;;;3.55;;
51814;SDS011;37874;53.158;6.766;2023-02-11T03:52:31;7.32;;;3.72;;
51814;SDS011;37874;53.158;6.766;2023-02-11T03:54:59;7.85;;;3.80;;
51814;SDS011;37874;53.158;6.766;2023-02-11T03:57:29;6.45;;;3.10;;
51814;SDS011;37874;53.158;6.766;2023-02-11T03:59:57;8.02;;;3.58;;
51814;SDS011;37874;53.158;6.766;2023-02-11T04:02:27;7.68;;;3.50;;
51814;SDS011;37874;53.158;6.766;2023-02-11T04:04:55;6.60;;;3.55;;
51814;SDS011;37874;53.158;6.766;2023-02-11T04:07:21;8.20;;;3.75;;
51814;SDS011;37874;53.158;6.766;2023-02-11T04:09:47;6.45;;;3.70;;
51814;SDS011;37874;53.158;6.766;2023-02-11T04:12:13;7.35;;;3.15;;
51814;SDS011;37874;53.158;6.766;2023-02-11T04:14:38;8.52;;;3.72;;
51814;SDS011;37874;53.158;6.766;2023-02-11T04:17:04;8.70;;;4.10;;
51814;SDS011;37874;53.158;6.766;2023-02-11T04:19:30;6.78;;;3.42;;
51814;SDS011;37874;53.158;6.766;2023-02-11T04:21:55;6.65;;;3.40;;
51814;SDS011;37874;53.158;6.766;2023-02-11T04:24:21;8.07;;;4.07;;
51814;SDS011;37874;53.158;6.766;2023-02-11T04:26:47;7.88;;;3.67;;
51814;SDS011;37874;53.158;6.766;2023-02-11T04:29:12;7.00;;;3.65;;
51814;SDS011;37874;53.158;6.766;2023-02-11T04:31:38;7.28;;;3.60;;
51814;SDS011;37874;53.158;6.766;2023-02-11T04:34:03;7.78;;;4.15;;
51814;SDS011;37874;53.158;6.766;2023-02-11T04:36:29;7.32;;;3.50;;
51814;SDS011;37874;53.158;6.766;2023-02-11T04:38:55;8.30;;;3.58;;
51814;SDS011;37874;53.158;6.766;2023-02-11T04:41:20;7.53;;;3.95;;
51814;SDS011;37874;53.158;6.766;2023-02-11T04:43:46;7.72;;;3.90;;
51814;SDS011;37874;53.158;6.766;2023-02-11T04:46:11;9.43;;;3.95;;
51814;SDS011;37874;53.158;6.766;2023-02-11T04:48:37;6.68;;;3.40;;
51814;SDS011;37874;53.158;6.766;2023-02-11T04:51:03;9.02;;;4.75;;
51814;SDS011;37874;53.158;6.766;2023-02-11T04:53:28;8.50;;;3.55;;
51814;SDS011;37874;53.158;6.766;2023-02-11T04:55:54;7.93;;;4.30;;
51814;SDS011;37874;53.158;6.766;2023-02-11T04:58:19;9.65;;;4.15;;
51814;SDS011;37874;53.158;6.766;2023-02-11T05:00:45;7.22;;;3.58;;
51814;SDS011;37874;53.158;6.766;2023-02-11T05:03:11;7.20;;;3.53;;
51814;SDS011;37874;53.158;6.766;2023-02-11T05:05:38;7.72;;;4.13;;
51814;SDS011;37874;53.158;6.766;2023-02-11T05:08:04;7.32;;;4.13;;
51814;SDS011;37874;53.158;6.766;2023-02-11T05:10:30;9.15;;;4.00;;
51814;SDS011;37874;53.158;6.766;2023-02-11T05:12:56;8.95;;;3.72;;
51814;SDS011;37874;53.158;6.766;2023-02-11T05:15:22;7.38;;;4.03;;
51814;SDS011;37874;53.158;6.766;2023-02-11T05:17:47;6.50;;;3.92;;
51814;SDS011;37874;53.158;6.766;2023-02-11T05:20:13;6.53;;;3.45;;
51814;SDS011;37874;53.158;6.766;2023-02-11T05:22:39;8.82;;;4.05;;
51814;SDS011;37874;53.158;6.766;2023-02-11T05:25:04;8.50;;;3.97;;
51814;SDS011;37874;53.158;6.766;2023-02-11T05:27:30;9.00;;;4.40;;
51814;SDS011;37874;53.158;6.766;2023-02-11T05:29:56;7.82;;;4.07;;
51814;SDS011;37874;53.158;6.766;2023-02-11T05:32:21;7.30;;;4.15;;
51814;SDS011;37874;53.158;6.766;2023-02-11T05:34:47;7.07;;;4.18;;
51814;SDS011;37874;53.158;6.766;2023-02-11T05:37:13;6.35;;;3.95;;
51814;SDS011;37874;53.158;6.766;2023-02-11T05:39:39;9.30;;;3.90;;
51814;SDS011;37874;53.158;6.766;2023-02-11T05:42:04;7.03;;;3.83;;
51814;SDS011;37874;53.158;6.766;2023-02-11T05:44:30;6.88;;;4.13;;
51814;SDS011;37874;53.158;6.766;2023-02-11T05:46:56;7.07;;;4.18;;
51814;SDS011;37874;53.158;6.766;2023-02-11T05:49:21;6.30;;;3.75;;
51814;SDS011;37874;53.158;6.766;2023-02-11T05:51:47;7.15;;;3.97;;
51814;SDS011;37874;53.158;6.766;2023-02-11T05:54:12;6.82;;;3.88;;
51814;SDS011;37874;53.158;6.766;2023-02-11T05:56:38;8.18;;;4.68;;
51814;SDS011;37874;53.158;6.766;2023-02-11T05:59:04;7.35;;;4.30;;
51814;SDS011;37874;53.158;6.766;2023-02-11T06:01:30;8.82;;;4.22;;
51814;SDS011;37874;53.158;6.766;2023-02-11T06:03:55;7.05;;;3.90;;
51814;SDS011;37874;53.158;6.766;2023-02-11T06:06:21;6.57;;;3.65;;
51814;SDS011;37874;53.158;6.766;2023-02-11T06:08:47;7.45;;;4.47;;
51814;SDS011;37874;53.158;6.766;2023-02-11T06:11:15;5.85;;;3.20;;
51814;SDS011;37874;53.158;6.766;2023-02-11T06:13:41;6.95;;;3.67;;
51814;SDS011;37874;53.158;6.766;2023-02-11T06:16:07;6.80;;;3.70;;
51814;SDS011;37874;53.158;6.766;2023-02-11T06:18:33;6.38;;;3.65;;
51814;SDS011;37874;53.158;6.766;2023-02-11T06:20:59;7.97;;;3.92;;
51814;SDS011;37874;53.158;6.766;2023-02-11T06:23:25;6.85;;;3.63;;
51814;SDS011;37874;53.158;6.766;2023-02-11T06:25:51;5.20;;;3.30;;
51814;SDS011;37874;53.158;6.766;2023-02-11T06:28:17;7.82;;;3.78;;
51814;SDS011;37874;53.158;6.766;2023-02-11T06:30:43;5.47;;;3.17;;
51814;SDS011;37874;53.158;6.766;2023-02-11T06:33:09;7.30;;;4.20;;
51814;SDS011;37874;53.158;6.766;2023-02-11T06:35:36;6.57;;;3.53;;
51814;SDS011;37874;53.158;6.766;2023-02-11T06:38:03;6.32;;;4.38;;
51814;SDS011;37874;53.158;6.766;2023-02-11T06:40:28;6.63;;;3.53;;
51814;SDS011;37874;53.158;6.766;2023-02-11T06:42:54;6.70;;;3.67;;
51814;SDS011;37874;53.158;6.766;2023-02-11T06:45:19;5.53;;;3.53;;
51814;SDS011;37874;53.158;6.766;2023-02-11T06:47:45;7.05;;;3.55;;
51814;SDS011;37874;53.158;6.766;2023-02-11T06:50:12;6.57;;;3.63;;
51814;SDS011;37874;53.158;6.766;2023-02-11T06:52:38;5.93;;;3.75;;
51814;SDS011;37874;53.158;6.766;2023-02-11T06:55:04;6.55;;;3.17;;
51814;SDS011;37874;53.158;6.766;2023-02-11T06:57:30;8.18;;;4.40;;
51814;SDS011;37874;53.158;6.766;2023-02-11T06:59:56;6.75;;;3.67;;
51814;SDS011;37874;53.158;6.766;2023-02-11T07:02:21;7.40;;;3.88;;
51814;SDS011;37874;53.158;6.766;2023-02-11T07:04:47;7.20;;;4.63;;
51814;SDS011;37874;53.158;6.766;2023-02-11T07:07:13;7.13;;;3.55;;
51814;SDS011;37874;53.158;6.766;2023-02-11T07:09:39;6.70;;;3.90;;
51814;SDS011;37874;53.158;6.766;2023-02-11T07:12:05;7.05;;;3.92;;
51814;SDS011;37874;53.158;6.766;2023-02-11T07:14:30;7.03;;;3.95;;
51814;SDS011;37874;53.158;6.766;2023-02-11T07:16:57;6.10;;;3.28;;
51814;SDS011;37874;53.158;6.766;2023-02-11T07:19:22;5.25;;;3.28;;
51814;SDS011;37874;53.158;6.766;2023-02-11T07:21:48;6.55;;;3.42;;
51814;SDS011;37874;53.158;6.766;2023-02-11T07:24:13;6.05;;;3.88;;
51814;SDS011;37874;53.158;6.766;2023-02-11T07:26:39;5.75;;;3.70;;
51814;SDS011;37874;53.158;6.766;2023-02-11T07:29:05;6.13;;;3.53;;
51814;SDS011;37874;53.158;6.766;2023-02-11T07:31:30;6.80;;;3.60;;
51814;SDS011;37874;53.158;6.766;2023-02-11T07:33:58;8.73;;;3.90;;
51814;SDS011;37874;53.158;6.766;2023-02-11T07:36:25;6.18;;;3.45;;
51814;SDS011;37874;53.158;6.766;2023-02-11T07:38:52;6.68;;;3.72;;
51814;SDS011;37874;53.158;6.766;2023-02-11T07:41:18;6.72;;;3.50;;
51814;SDS011;37874;53.158;6.766;2023-02-11T07:43:45;6.43;;;4.03;;
51814;SDS011;37874;53.158;6.766;2023-02-11T07:46:13;6.38;;;4.05;;
51814;SDS011;37874;53.158;6.766;2023-02-11T07:48:41;7.43;;;4.13;;
51814;SDS011;37874;53.158;6.766;2023-02-11T07:51:12;6.88;;;4.05;;
51814;SDS011;37874;53.158;6.766;2023-02-11T07:53:43;6.45;;;3.20;;
51814;SDS011;37874;53.158;6.766;2023-02-11T07:56:09;7.50;;;4.60;;
51814;SDS011;37874;53.158;6.766;2023-02-11T07:58:35;7.38;;;3.38;;
51814;SDS011;37874;53.158;6.766;2023-02-11T08:01:02;6.22;;;3.17;;
51814;SDS011;37874;53.158;6.766;2023-02-11T08:03:29;6.20;;;3.78;;
51814;SDS011;37874;53.158;6.766;2023-02-11T08:05:55;6.68;;;3.67;;
51814;SDS011;37874;53.158;6.766;2023-02-11T08:08:21;5.25;;;3.50;;
51814;SDS011;37874;53.158;6.766;2023-02-11T08:10:49;8.55;;;4.10;;
51814;SDS011;37874;53.158;6.766;2023-02-11T08:13:15;8.07;;;4.50;;
51814;SDS011;37874;53.158;6.766;2023-02-11T08:15:40;7.40;;;4.20;;
51814;SDS011;37874;53.158;6.766;2023-02-11T08:18:06;6.32;;;3.97;;
51814;SDS011;37874;53.158;6.766;2023-02-11T08:20:32;7.07;;;3.70;;
51814;SDS011;37874;53.158;6.766;2023-02-11T08:22:58;6.22;;;3.95;;
51814;SDS011;37874;53.158;6.766;2023-02-11T08:25:24;5.72;;;3.75;;
51814;SDS011;37874;53.158;6.766;2023-02-11T08:27:49;6.28;;;3.30;;
51814;SDS011;37874;53.158;6.766;2023-02-11T08:30:15;6.00;;;3.50;;
51814;SDS011;37874;53.158;6.766;2023-02-11T08:32:40;7.95;;;4.10;;
51814;SDS011;37874;53.158;6.766;2023-02-11T08:35:06;5.88;;;3.35;;
51814;SDS011;37874;53.158;6.766;2023-02-11T08:37:32;7.60;;;4.18;;
51814;SDS011;37874;53.158;6.766;2023-02-11T08:39:58;5.90;;;3.67;;
51814;SDS011;37874;53.158;6.766;2023-02-11T08:42:24;7.25;;;4.10;;
51814;SDS011;37874;53.158;6.766;2023-02-11T08:44:49;5.65;;;3.30;;
51814;SDS011;37874;53.158;6.766;2023-02-11T08:47:15;6.20;;;4.03;;
51814;SDS011;37874;53.158;6.766;2023-02-11T08:49:41;6.22;;;3.72;;
51814;SDS011;37874;53.158;6.766;2023-02-11T08:52:07;7.45;;;4.28;;
51814;SDS011;37874;53.158;6.766;2023-02-11T08:54:32;7.63;;;3.80;;
51814;SDS011;37874;53.158;6.766;2023-02-11T08:56:58;6.43;;;3.15;;
51814;SDS011;37874;53.158;6.766;2023-02-11T08:59:25;5.68;;;3.58;;
51814;SDS011;37874;53.158;6.766;2023-02-11T09:01:52;6.25;;;3.80;;
51814;SDS011;37874;53.158;6.766;2023-02-11T09:04:17;11.90;;;3.88;;
51814;SDS011;37874;53.158;6.766;2023-02-11T09:06:43;6.90;;;3.20;;
51814;SDS011;37874;53.158;6.766;2023-02-11T09:09:10;6.68;;;3.35;;
51814;SDS011;37874;53.158;6.766;2023-02-11T09:11:37;6.18;;;3.72;;
51814;SDS011;37874;53.158;6.766;2023-02-11T09:14:04;5.65;;;3.08;;
51814;SDS011;37874;53.158;6.766;2023-02-11T09:16:32;7.30;;;3.30;;
51814;SDS011;37874;53.158;6.766;2023-02-11T09:19:00;7.22;;;3.70;;
51814;SDS011;37874;53.158;6.766;2023-02-11T09:21:28;5.75;;;3.22;;
51814;SDS011;37874;53.158;6.766;2023-02-11T09:23:54;6.32;;;3.50;;
51814;SDS011;37874;53.158;6.766;2023-02-11T09:26:21;6.28;;;3.08;;
51814;SDS011;37874;53.158;6.766;2023-02-11T09:28:51;5.97;;;3.08;;
51814;SDS011;37874;53.158;6.766;2023-02-11T09:31:22;5.90;;;2.80;;
51814;SDS011;37874;53.158;6.766;2023-02-11T09:33:49;5.47;;;2.95;;
51814;SDS011;37874;53.158;6.766;2023-02-11T09:36:18;6.57;;;3.45;;
51814;SDS011;37874;53.158;6.766;2023-02-11T09:38:49;7.00;;;3.42;;
51814;SDS011;37874;53.158;6.766;2023-02-11T09:43:47;9.15;;;3.40;;
51814;SDS011;37874;53.158;6.766;2023-02-11T09:46:26;7.85;;;3.60;;
51814;SDS011;37874;53.158;6.766;2023-02-11T09:48:57;5.85;;;3.50;;
51814;SDS011;37874;53.158;6.766;2023-02-11T09:51:32;6.25;;;3.38;;
51814;SDS011;37874;53.158;6.766;2023-02-11T09:54:16;6.53;;;3.38;;
51814;SDS011;37874;53.158;6.766;2023-02-11T09:56:58;5.00;;;2.88;;
51814;SDS011;37874;53.158;6.766;2023-02-11T09:59:23;5.38;;;2.70;;
51814;SDS011;37874;53.158;6.766;2023-02-11T10:01:49;7.43;;;3.17;;
51814;SDS011;37874;53.158;6.766;2023-02-11T10:04:41;6.50;;;3.28;;
51814;SDS011;37874;53.158;6.766;2023-02-11T10:10:43;8.18;;;3.55;;
51814;SDS011;37874;53.158;6.766;2023-02-11T10:18:30;7.30;;;3.47;;
51814;SDS011;37874;53.158;6.766;2023-02-11T10:23:40;6.53;;;3.33;;
51814;SDS011;37874;53.158;6.766;2023-02-11T10:26:11;6.20;;;3.42;;
51814;SDS011;37874;53.158;6.766;2023-02-11T10:28:38;6.60;;;3.28;;
51814;SDS011;37874;53.158;6.766;2023-02-11T10:31:15;5.93;;;3.38;;
51814;SDS011;37874;53.158;6.766;2023-02-11T10:34:08;7.05;;;3.00;;
51814;SDS011;37874;53.158;6.766;2023-02-11T10:36:37;7.75;;;3.28;;
51814;SDS011;37874;53.158;6.766;2023-02-11T10:39:16;7.22;;;3.50;;
51814;SDS011;37874;53.158;6.766;2023-02-11T10:41:48;5.53;;;2.72;;
51814;SDS011;37874;53.158;6.766;2023-02-11T10:44:28;6.23;;;3.00;;
51814;SDS011;37874;53.158;6.766;2023-02-11T10:47:13;5.80;;;2.97;;
51814;SDS011;37874;53.158;6.766;2023-02-11T10:49:44;7.53;;;2.97;;
51814;SDS011;37874;53.158;6.766;2023-02-11T10:52:11;8.75;;;3.33;;
51814;SDS011;37874;53.158;6.766;2023-02-11T10:55:19;6.70;;;2.65;;
51814;SDS011;37874;53.158;6.766;2023-02-11T10:57:40;7.97;;;3.00;;
51814;SDS011;37874;53.158;6.766;2023-02-11T11:03:01;6.50;;;2.70;;
51814;SDS011;37874;53.158;6.766;2023-02-11T11:05:36;5.82;;;2.42;;
51814;SDS011;37874;53.158;6.766;2023-02-11T11:08:14;8.38;;;2.55;;
51814;SDS011;37874;53.158;6.766;2023-02-11T11:18:40;6.47;;;2.42;;
51814;SDS011;37874;53.158;6.766;2023-02-11T11:21:11;6.65;;;2.17;;
51814;SDS011;37874;53.158;6.766;2023-02-11T11:23:40;5.80;;;2.28;;
51814;SDS011;37874;53.158;6.766;2023-02-11T11:26:13;8.13;;;2.33;;
51814;SDS011;37874;53.158;6.766;2023-02-11T11:28:41;6.60;;;2.35;;
51814;SDS011;37874;53.158;6.766;2023-02-11T11:31:17;4.38;;;2.10;;
51814;SDS011;37874;53.158;6.766;2023-02-11T11:33:46;4.53;;;1.98;;
51814;SDS011;37874;53.158;6.766;2023-02-11T11:36:15;6.97;;;2.13;;
51814;SDS011;37874;53.158;6.766;2023-02-11T11:38:47;5.05;;;2.08;;
51814;SDS011;37874;53.158;6.766;2023-02-11T11:41:23;6.10;;;2.47;;
51814;SDS011;37874;53.158;6.766;2023-02-11T11:43:53;4.75;;;2.10;;
51814;SDS011;37874;53.158;6.766;2023-02-11T11:46:25;4.90;;;2.10;;
51814;SDS011;37874;53.158;6.766;2023-02-11T11:48:54;6.03;;;1.88;;
51814;SDS011;37874;53.158;6.766;2023-02-11T11:51:41;3.75;;;1.58;;
51814;SDS011;37874;53.158;6.766;2023-02-11T11:54:14;5.50;;;1.95;;
51814;SDS011;37874;53.158;6.766;2023-02-11T11:56:50;5.60;;;1.73;;
51814;SDS011;37874;53.158;6.766;2023-02-11T11:59:20;5.10;;;2.03;;
51814;SDS011;37874;53.158;6.766;2023-02-11T12:04:35;5.30;;;1.67;;
51814;SDS011;37874;53.158;6.766;2023-02-11T12:10:05;6.03;;;1.70;;
51814;SDS011;37874;53.158;6.766;2023-02-11T12:13:12;6.70;;;1.90;;
51814;SDS011;37874;53.158;6.766;2023-02-11T12:16:05;6.07;;;1.95;;
51814;SDS011;37874;53.158;6.766;2023-02-11T12:32:23;6.55;;;1.63;;
51814;SDS011;37874;53.158;6.766;2023-02-11T12:35:18;5.55;;;2.00;;
51814;SDS011;37874;53.158;6.766;2023-02-11T12:40:45;5.78;;;1.60;;
51814;SDS011;37874;53.158;6.766;2023-02-11T12:43:40;5.88;;;1.67;;
51814;SDS011;37874;53.158;6.766;2023-02-11T12:57:23;4.80;;;1.70;;
51814;SDS011;37874;53.158;6.766;2023-02-11T13:08:31;5.38;;;1.67;;
51814;SDS011;37874;53.158;6.766;2023-02-11T13:11:11;5.97;;;1.75;;
51814;SDS011;37874;53.158;6.766;2023-02-11T13:13:53;3.72;;;1.48;;
51814;SDS011;37874;53.158;6.766;2023-02-11T13:24:35;4.50;;;1.65;;
51814;SDS011;37874;53.158;6.766;2023-02-11T13:35:33;4.15;;;1.50;;
51814;SDS011;37874;53.158;6.766;2023-02-11T13:38:04;3.50;;;1.52;;
51814;SDS011;37874;53.158;6.766;2023-02-11T13:40:41;3.42;;;1.45;;
51814;SDS011;37874;53.158;6.766;2023-02-11T13:43:23;8.63;;;2.58;;
51814;SDS011;37874;53.158;6.766;2023-02-11T13:46:03;5.55;;;1.50;;
51814;SDS011;37874;53.158;6.766;2023-02-11T13:48:37;5.47;;;2.67;;
51814;SDS011;37874;53.158;6.766;2023-02-11T13:51:16;6.43;;;1.90;;
51814;SDS011;37874;53.158;6.766;2023-02-11T13:53:57;7.22;;;3.10;;
51814;SDS011;37874;53.158;6.766;2023-02-11T13:56:31;8.32;;;2.78;;
51814;SDS011;37874;53.158;6.766;2023-02-11T13:59:03;5.05;;;2.30;;
51814;SDS011;37874;53.158;6.766;2023-02-11T14:11:02;7.18;;;1.67;;
51814;SDS011;37874;53.158;6.766;2023-02-11T14:16:17;5.45;;;1.63;;
51814;SDS011;37874;53.158;6.766;2023-02-11T14:21:23;5.35;;;1.77;;
51814;SDS011;37874;53.158;6.766;2023-02-11T14:29:38;4.85;;;1.70;;
51814;SDS011;37874;53.158;6.766;2023-02-11T14:37:42;6.00;;;1.80;;
51814;SDS011;37874;53.158;6.766;2023-02-11T14:42:49;6.50;;;1.33;;
51814;SDS011;37874;53.158;6.766;2023-02-11T14:45:21;5.50;;;1.60;;
51814;SDS011;37874;53.158;6.766;2023-02-11T14:47:54;5.00;;;1.40;;
51814;SDS011;37874;53.158;6.766;2023-02-11T14:50:44;4.68;;;1.80;;
51814;SDS011;37874;53.158;6.766;2023-02-11T14:53:14;4.90;;;1.45;;
51814;SDS011;37874;53.158;6.766;2023-02-11T14:55:44;5.13;;;1.50;;
51814;SDS011;37874;53.158;6.766;2023-02-11T14:58:26;5.90;;;1.88;;
51814;SDS011;37874;53.158;6.766;2023-02-11T15:00:57;5.70;;;1.55;;
51814;SDS011;37874;53.158;6.766;2023-02-11T15:03:37;3.40;;;1.33;;
51814;SDS011;37874;53.158;6.766;2023-02-11T15:06:21;6.50;;;1.58;;
51814;SDS011;37874;53.158;6.766;2023-02-11T15:09:03;5.65;;;1.70;;
51814;SDS011;37874;53.158;6.766;2023-02-11T15:11:52;5.20;;;1.50;;
51814;SDS011;37874;53.158;6.766;2023-02-11T15:14:21;3.92;;;1.27;;
51814;SDS011;37874;53.158;6.766;2023-02-11T15:16:50;4.40;;;1.45;;
51814;SDS011;37874;53.158;6.766;2023-02-11T15:21:48;3.97;;;1.33;;
51814;SDS011;37874;53.158;6.766;2023-02-11T15:24:26;4.30;;;1.40;;
51814;SDS011;37874;53.158;6.766;2023-02-11T15:26:59;5.78;;;1.35;;
51814;SDS011;37874;53.158;6.766;2023-02-11T15:29:27;5.60;;;1.58;;
51814;SDS011;37874;53.158;6.766;2023-02-11T15:32:02;4.97;;;1.50;;
51814;SDS011;37874;53.158;6.766;2023-02-11T15:34:33;3.78;;;1.20;;
51814;SDS011;37874;53.158;6.766;2023-02-11T15:37:01;4.90;;;1.60;;
51814;SDS011;37874;53.158;6.766;2023-02-11T15:39:29;5.78;;;1.63;;
51814;SDS011;37874;53.158;6.766;2023-02-11T15:41:55;5.43;;;1.88;;
51814;SDS011;37874;53.158;6.766;2023-02-11T15:44:30;6.05;;;2.05;;
51814;SDS011;37874;53.158;6.766;2023-02-11T15:46:56;4.45;;;2.10;;
51814;SDS011;37874;53.158;6.766;2023-02-11T15:49:23;5.95;;;2.08;;
51814;SDS011;37874;53.158;6.766;2023-02-11T15:51:49;8.65;;;2.65;;
51814;SDS011;37874;53.158;6.766;2023-02-11T17:54:55;5.30;;;1.55;;
51814;SDS011;37874;53.158;6.766;2023-02-11T17:57:22;5.63;;;2.20;;
51814;SDS011;37874;53.158;6.766;2023-02-11T17:59:47;5.43;;;1.60;;
51814;SDS011;37874;53.158;6.766;2023-02-11T18:02:13;5.97;;;2.10;;
51814;SDS011;37874;53.158;6.766;2023-02-11T18:04:38;6.72;;;2.40;;
51814;SDS011;37874;53.158;6.766;2023-02-11T18:07:05;5.95;;;1.70;;
51814;SDS011;37874;53.158;6.766;2023-02-11T18:09:34;6.80;;;1.70;;
51814;SDS011;37874;53.158;6.766;2023-02-11T18:12:01;7.57;;;1.95;;
51814;SDS011;37874;53.158;6.766;2023-02-11T18:14:26;4.35;;;1.50;;
51814;SDS011;37874;53.158;6.766;2023-02-11T18:16:52;3.33;;;1.20;;
51814;SDS011;37874;53.158;6.766;2023-02-11T18:19:18;4.75;;;1.45;;
51814;SDS011;37874;53.158;6.766;2023-02-11T18:21:44;4.03;;;1.25;;
51814;SDS011;37874;53.158;6.766;2023-02-11T18:24:12;4.20;;;1.50;;
51814;SDS011;37874;53.158;6.766;2023-02-11T18:26:38;4.88;;;1.60;;
51814;SDS011;37874;53.158;6.766;2023-02-11T18:29:04;5.60;;;1.50;;
51814;SDS011;37874;53.158;6.766;2023-02-11T18:31:31;6.75;;;1.70;;
51814;SDS011;37874;53.158;6.766;2023-02-11T18:33:56;6.40;;;1.77;;
51814;SDS011;37874;53.158;6.766;2023-02-11T18:36:22;4.90;;;1.48;;
51814;SDS011;37874;53.158;6.766;2023-02-11T18:38:48;5.03;;;1.70;;
51814;SDS011;37874;53.158;6.766;2023-02-11T18:41:13;4.88;;;1.60;;
51814;SDS011;37874;53.158;6.766;2023-02-11T18:43:40;5.88;;;1.77;;
51814;SDS011;37874;53.158;6.766;2023-02-11T18:46:08;6.07;;;1.90;;
51814;SDS011;37874;53.158;6.766;2023-02-11T18:48:35;4.38;;;1.80;;
51814;SDS011;37874;53.158;6.766;2023-02-11T18:51:01;5.65;;;1.38;;
51814;SDS011;37874;53.158;6.766;2023-02-11T18:53:31;4.75;;;1.60;;
51814;SDS011;37874;53.158;6.766;2023-02-11T18:55:57;5.80;;;1.73;;
51814;SDS011;37874;53.158;6.766;2023-02-11T18:58:22;4.00;;;1.60;;
51814;SDS011;37874;53.158;6.766;2023-02-11T19:00:48;6.72;;;1.90;;
51814;SDS011;37874;53.158;6.766;2023-02-11T19:03:14;4.57;;;1.40;;
51814;SDS011;37874;53.158;6.766;2023-02-11T19:05:40;5.45;;;1.70;;
51814;SDS011;37874;53.158;6.766;2023-02-11T19:08:07;6.28;;;2.05;;
51814;SDS011;37874;53.158;6.766;2023-02-11T19:10:32;5.15;;;1.90;;
51814;SDS011;37874;53.158;6.766;2023-02-11T19:12:58;6.15;;;1.70;;
51814;SDS011;37874;53.158;6.766;2023-02-11T19:15:24;4.85;;;1.80;;
51814;SDS011;37874;53.158;6.766;2023-02-11T19:17:50;5.68;;;1.88;;
51814;SDS011;37874;53.158;6.766;2023-02-11T19:20:16;6.72;;;1.95;;
51814;SDS011;37874;53.158;6.766;2023-02-11T19:22:42;7.03;;;1.92;;
51814;SDS011;37874;53.158;6.766;2023-02-11T19:25:08;4.50;;;1.60;;
51814;SDS011;37874;53.158;6.766;2023-02-11T19:27:35;5.55;;;1.80;;
51814;SDS011;37874;53.158;6.766;2023-02-11T19:30:00;6.07;;;1.70;;
51814;SDS011;37874;53.158;6.766;2023-02-11T19:32:26;5.75;;;2.50;;
51814;SDS011;37874;53.158;6.766;2023-02-11T19:34:52;6.65;;;2.35;;